Time;durP1;ratioP1;P1;durP2;ratioP2;P2;SDS_P1;SDS_P2;PMS_P1;PMS_P2;Temp;Humidity;BMP_temperature;BMP_pressure;BME280_temperature;BME280_humidity;BME280_pressure;Samples;Min_cycle;Max_cycle;Signal;HPM_P1;HPM_P2
2023/01/11 01:36:32;;;;;;;6.45;0.82;;;12.20;99.90;;;;;;4023712;29;20241;-94
2023/01/11 01:38:33;;;;;;;3.15;1.10;;;12.20;99.90;;;;;;4013034;29;20194;-90
2023/01/11 01:40:44;;;;;;;6.13;0.98;;;12.20;99.90;;;;;;4008083;29;20649;-90
2023/01/11 01:42:45;;;;;;;2.80;0.80;;;12.20;99.90;;;;;;4024455;29;20722;-92
2023/01/11 01:44:56;;;;;;;9.45;1.30;;;12.30;99.90;;;;;;3994501;29;20168;-89
2023/01/11 01:46:57;;;;;;;4.60;1.00;;;12.40;99.90;;;;;;4010414;29;20704;-93
2023/01/11 01:49:12;;;;;;;7.15;1.10;;;12.40;99.90;;;;;;4009908;29;20243;-93
2023/01/11 01:51:18;;;;;;;6.97;0.80;;;12.40;99.90;;;;;;4008397;29;20589;-92
2023/01/11 01:53:28;;;;;;;2.50;0.90;;;12.40;99.90;;;;;;4010949;29;20183;-95
2023/01/11 01:55:33;;;;;;;3.17;1.10;;;12.30;99.90;;;;;;4009056;29;20190;-92
2023/01/11 01:57:36;;;;;;;5.43;1.00;;;12.30;99.90;;;;;;4011315;29;20250;-89
2023/01/11 01:59:37;;;;;;;4.32;1.10;;;12.40;99.90;;;;;;4008477;29;20167;-93
2023/01/11 02:01:48;;;;;;;1.98;0.95;;;12.30;99.90;;;;;;4013718;29;20210;-96
2023/01/11 02:03:49;;;;;;;4.68;0.90;;;12.40;99.90;;;;;;4027377;29;20312;-91
2023/01/11 02:05:52;;;;;;;5.82;1.10;;;12.50;99.90;;;;;;4009291;29;20197;-90
2023/01/11 02:07:55;;;;;;;3.17;1.00;;;12.30;99.90;;;;;;4025402;29;20186;-91
2023/01/11 02:10:04;;;;;;;4.72;0.80;;;12.30;99.90;;;;;;4011095;29;20224;-90
2023/01/11 02:12:06;;;;;;;3.85;0.75;;;12.40;99.90;;;;;;4011091;29;20207;-90
2023/01/11 02:14:13;;;;;;;2.72;0.85;;;12.30;99.90;;;;;;4026776;29;20189;-90
2023/01/11 02:16:13;;;;;;;4.05;1.00;;;12.30;99.90;;;;;;4013841;29;20200;-92
2023/01/11 02:18:14;;;;;;;2.92;0.73;;;12.30;99.90;;;;;;4014973;29;20175;-89
2023/01/11 02:20:51;;;;;;;4.72;1.25;;;12.30;99.90;;;;;;4012315;29;20208;-90
2023/01/11 02:23:20;;;;;;;5.38;1.10;;;12.30;99.90;;;;;;4010213;29;20215;-94
2023/01/11 02:25:32;;;;;;;4.65;0.95;;;12.20;99.90;;;;;;4026689;29;20190;-95
2023/01/11 02:27:48;;;;;;;2.72;0.93;;;12.10;99.90;;;;;;4013963;29;20202;-93
2023/01/11 02:30:13;;;;;;;2.92;0.70;;;12.10;99.90;;;;;;4030149;29;20310;-95
2023/01/11 02:32:21;;;;;;;1.60;0.60;;;12.20;99.90;;;;;;4027126;29;20202;-94
2023/01/11 02:35:05;;;;;;;2.15;0.60;;;12.20;99.90;;;;;;4026639;29;20193;-90
2023/01/11 02:37:17;;;;;;;3.33;0.77;;;12.20;99.90;;;;;;3999301;29;20215;-90
2023/01/11 02:39:30;;;;;;;1.23;0.55;;;12.20;99.90;;;;;;4024804;29;20182;-94
2023/01/11 02:46:59;;;;;;;1.85;0.55;;;12.30;99.90;;;;;;4026260;29;20238;-96
2023/01/11 02:49:30;;;;;;;1.27;0.60;;;12.30;99.90;;;;;;4027882;29;20188;-89
2023/01/11 02:51:53;;;;;;;2.88;0.70;;;12.30;99.90;;;;;;4003118;29;20723;-89
2023/01/11 02:54:05;;;;;;;1.67;0.50;;;12.40;99.90;;;;;;4009674;29;20195;-95
2023/01/11 02:56:10;;;;;;;2.08;0.63;;;12.40;99.90;;;;;;4025781;29;20186;-94
2023/01/11 02:58:12;;;;;;;1.15;0.60;;;12.30;99.90;;;;;;4008962;29;20234;-93
2023/01/11 03:00:15;;;;;;;1.25;0.40;;;12.20;99.90;;;;;;4012925;29;20187;-95
2023/01/11 03:02:16;;;;;;;2.90;0.90;;;12.30;99.90;;;;;;4027284;29;20170;-96
2023/01/11 03:04:28;;;;;;;1.15;0.50;;;12.30;99.90;;;;;;4012005;29;20676;-95
2023/01/11 03:06:34;;;;;;;3.63;0.60;;;12.30;99.90;;;;;;4027668;29;20202;-92
2023/01/11 03:08:53;;;;;;;3.60;0.75;;;12.30;99.90;;;;;;4027126;29;20672;-89
2023/01/11 03:11:13;;;;;;;1.77;0.55;;;12.30;99.90;;;;;;4008570;29;20326;-88
2023/01/11 03:13:22;;;;;;;0.80;0.40;;;12.40;99.90;;;;;;4024640;29;20234;-89
2023/01/11 03:16:07;;;;;;;3.83;0.60;;;12.30;99.90;;;;;;4008959;29;20187;-89
2023/01/11 03:18:13;;;;;;;1.75;0.30;;;12.20;99.90;;;;;;4016044;29;20594;-96
2023/01/11 03:20:14;;;;;;;1.52;0.60;;;12.20;99.90;;;;;;4014482;29;20182;-91
2023/01/11 03:22:32;;;;;;;2.65;0.57;;;12.30;99.90;;;;;;4010851;29;20225;-90
2023/01/11 03:24:44;;;;;;;2.95;0.60;;;12.30;99.90;;;;;;4026216;29;20288;-89
2023/01/11 03:26:59;;;;;;;3.35;0.50;;;12.30;99.90;;;;;;4000215;29;20208;-92
2023/01/11 03:29:29;;;;;;;2.63;0.38;;;12.30;99.90;;;;;;3994653;29;20179;-90
2023/01/11 03:31:39;;;;;;;1.85;0.60;;;12.20;99.90;;;;;;4009858;29;20587;-93
2023/01/11 03:33:59;;;;;;;1.02;0.57;;;12.20;99.90;;;;;;3994489;29;20183;-92
2023/01/11 03:36:15;;;;;;;1.55;0.50;;;12.30;99.90;;;;;;3994579;29;20192;-91
2023/01/11 03:38:16;;;;;;;3.15;0.65;;;12.50;99.90;;;;;;4008693;29;20727;-90
2023/01/11 03:40:24;;;;;;;2.28;0.70;;;12.50;99.90;;;;;;4008442;29;20187;-95
2023/01/11 03:42:27;;;;;;;1.63;0.50;;;12.60;99.90;;;;;;4023618;29;20540;-94
2023/01/11 03:44:33;;;;;;;2.30;0.68;;;12.60;99.90;;;;;;4008364;29;20175;-90
2023/01/11 03:46:37;;;;;;;2.40;0.43;;;12.70;99.90;;;;;;4008216;29;20700;-90
2023/01/11 03:48:48;;;;;;;1.80;0.30;;;12.80;99.90;;;;;;4008094;29;20190;-90
2023/01/11 03:50:50;;;;;;;1.10;0.40;;;12.80;99.90;;;;;;4023414;29;20174;-90
2023/01/11 03:52:52;;;;;;;1.13;0.40;;;12.90;99.90;;;;;;4023256;29;20177;-91
2023/01/11 03:54:55;;;;;;;1.50;0.40;;;12.90;99.90;;;;;;4023232;29;20190;-93
2023/01/11 03:57:06;;;;;;;2.92;0.50;;;12.90;99.90;;;;;;4007895;29;20256;-96
2023/01/11 03:59:07;;;;;;;1.00;0.30;;;12.80;99.90;;;;;;4023251;29;20179;-91
2023/01/11 04:01:08;;;;;;;2.33;0.50;;;13.00;99.90;;;;;;4008199;29;20182;-95
2023/01/11 04:03:11;;;;;;;3.22;0.40;;;13.00;99.90;;;;;;3992849;29;20274;-91
2023/01/11 04:05:12;;;;;;;1.05;0.30;;;13.00;99.90;;;;;;3993136;29;20187;-91
2023/01/11 04:07:13;;;;;;;2.63;0.30;;;13.10;99.90;;;;;;4007973;29;20202;-91
2023/01/11 04:09:13;;;;;;;2.55;0.50;;;13.00;99.90;;;;;;3992874;29;20205;-89
2023/01/11 04:11:14;;;;;;;0.38;0.30;;;12.90;99.90;;;;;;4008258;29;20203;-91
2023/01/11 04:13:15;;;;;;;1.05;0.40;;;12.90;99.90;;;;;;3992933;29;20211;-92
2023/01/11 04:15:16;;;;;;;0.70;0.32;;;12.80;99.90;;;;;;4008327;29;20282;-95
2023/01/11 04:17:17;;;;;;;1.30;0.40;;;12.80;99.90;;;;;;3993439;29;20199;-89
2023/01/11 04:19:18;;;;;;;0.88;0.45;;;12.70;99.90;;;;;;4008165;29;20637;-91
2023/01/11 04:21:18;;;;;;;1.38;0.45;;;12.70;99.90;;;;;;3992862;29;20230;-91
2023/01/11 04:23:19;;;;;;;2.15;0.50;;;12.60;99.90;;;;;;4008184;29;20317;-91
2023/01/11 04:25:20;;;;;;;2.65;0.60;;;12.70;99.90;;;;;;4010136;29;20273;-95
2023/01/11 04:27:20;;;;;;;1.08;0.30;;;12.70;99.90;;;;;;4010576;29;20199;-92
2023/01/11 04:29:21;;;;;;;0.30;0.30;;;12.60;99.90;;;;;;4014406;29;20211;-94
2023/01/11 04:31:22;;;;;;;1.02;0.50;;;12.40;99.90;;;;;;4013550;29;20265;-91
2023/01/11 04:33:22;;;;;;;1.95;0.40;;;12.50;99.90;;;;;;4009534;29;20293;-90
2023/01/11 04:35:24;;;;;;;0.70;0.50;;;12.50;99.90;;;;;;4009705;29;20381;-93
2023/01/11 04:37:24;;;;;;;2.38;0.55;;;12.50;99.90;;;;;;4009544;29;20231;-92
2023/01/11 04:39:25;;;;;;;0.77;0.50;;;12.60;99.90;;;;;;4009732;29;20664;-91
2023/01/11 04:43:45;;;;;;;1.83;0.60;;;12.60;99.90;;;;;;4024661;29;20316;-89
2023/01/11 04:45:46;;;;;;;2.22;0.40;;;12.50;99.90;;;;;;3995270;29;20244;-90
2023/01/11 04:47:53;;;;;;;1.10;0.50;;;12.70;99.90;;;;;;4010178;29;20195;-90
2023/01/11 04:49:54;;;;;;;0.90;0.50;;;12.70;99.90;;;;;;4008370;29;20178;-93
2023/01/11 04:51:55;;;;;;;1.85;0.40;;;12.80;99.90;;;;;;4007728;29;20178;-92
2023/01/11 04:53:55;;;;;;;3.70;0.40;;;12.90;99.90;;;;;;4007896;29;20246;-91
2023/01/11 04:56:00;;;;;;;2.13;0.50;;;12.90;99.90;;;;;;3993195;29;20309;-95
2023/01/11 04:58:00;;;;;;;5.35;0.63;;;12.80;99.90;;;;;;3994317;29;20216;-91
2023/01/11 05:00:05;;;;;;;4.93;0.60;;;12.90;99.90;;;;;;4007838;29;20617;-93
2023/01/11 05:02:06;;;;;;;3.60;0.60;;;12.80;99.90;;;;;;4009171;29;20170;-91
2023/01/11 05:04:06;;;;;;;3.17;0.60;;;12.80;99.90;;;;;;4008647;29;20218;-90
2023/01/11 05:06:08;;;;;;;5.95;0.80;;;12.80;99.90;;;;;;4007626;29;20167;-91
2023/01/11 05:08:08;;;;;;;3.92;0.80;;;12.90;99.90;;;;;;4007437;29;20231;-90
2023/01/11 05:10:10;;;;;;;5.35;0.95;;;12.90;99.90;;;;;;4010077;29;20175;-93
2023/01/11 05:12:10;;;;;;;6.90;1.00;;;13.10;99.90;;;;;;4010461;29;20231;-95
2023/01/11 05:14:12;;;;;;;10.65;1.38;;;12.90;99.90;;;;;;4010015;29;20187;-96
2023/01/11 05:16:22;;;;;;;9.73;1.30;;;12.90;99.90;;;;;;4014444;29;20200;-92
2023/01/11 05:18:23;;;;;;;10.00;1.38;;;12.90;99.90;;;;;;4026021;29;20186;-89
2023/01/11 05:20:24;;;;;;;9.00;1.40;;;13.00;99.90;;;;;;4008398;29;20247;-89
2023/01/11 05:22:25;;;;;;;15.00;1.70;;;12.90;99.90;;;;;;3992955;29;20179;-89
2023/01/11 05:24:25;;;;;;;15.38;1.80;;;12.60;99.90;;;;;;4023243;29;20241;-95
2023/01/11 05:26:30;;;;;;;11.77;1.73;;;12.60;99.90;;;;;;3993565;29;20493;-94
2023/01/11 05:28:31;;;;;;;12.00;1.63;;;12.70;99.90;;;;;;3992737;29;20191;-91
2023/01/11 05:30:31;;;;;;;13.32;1.42;;;12.60;99.90;;;;;;3992333;29;20270;-89
2023/01/11 05:32:32;;;;;;;13.45;1.67;;;12.60;99.90;;;;;;4007208;29;20194;-90
2023/01/11 05:34:34;;;;;;;17.55;2.05;;;12.60;99.90;;;;;;4007403;29;20249;-90
2023/01/11 05:36:35;;;;;;;11.75;1.92;;;12.70;99.90;;;;;;4022070;29;20648;-94
2023/01/11 05:38:35;;;;;;;11.63;2.28;;;12.50;99.90;;;;;;4007002;29;20182;-94
2023/01/11 05:40:36;;;;;;;13.02;1.92;;;12.60;99.90;;;;;;4010551;29;20171;-94
2023/01/11 05:42:37;;;;;;;14.30;1.40;;;12.70;99.90;;;;;;3994871;29;20187;-89
2023/01/11 05:46:57;;;;;;;20.75;1.67;;;12.40;99.90;;;;;;4025581;29;20270;-95
2023/01/11 05:48:59;;;;;;;20.67;2.38;;;12.30;99.90;;;;;;4010219;29;20206;-95
2023/01/11 05:50:59;;;;;;;25.58;2.10;;;12.30;99.90;;;;;;4010270;29;20175;-93
2023/01/11 05:53:00;;;;;;;13.73;2.08;;;12.20;99.90;;;;;;4010193;29;20284;-96
2023/01/11 05:55:01;;;;;;;16.15;2.85;;;12.10;99.90;;;;;;4010371;29;20198;-91
2023/01/11 05:57:02;;;;;;;17.75;2.55;;;12.10;99.90;;;;;;4009747;29;20211;-93
2023/01/11 05:59:02;;;;;;;24.52;2.83;;;12.00;99.90;;;;;;4009797;29;20592;-92
2023/01/11 06:01:05;;;;;;;11.95;1.98;;;12.10;99.90;;;;;;4009992;29;20312;-90
2023/01/11 06:03:06;;;;;;;21.50;2.47;;;12.20;99.90;;;;;;4011401;29;20267;-94
2023/01/11 06:05:07;;;;;;;14.80;2.25;;;12.40;99.90;;;;;;3994707;29;20171;-94
2023/01/11 06:07:08;;;;;;;24.48;3.38;;;12.30;99.90;;;;;;4024899;29;20301;-92
2023/01/11 06:09:09;;;;;;;18.55;2.47;;;12.20;99.90;;;;;;4010362;29;20171;-90
2023/01/11 06:11:10;;;;;;;25.95;2.88;;;12.10;99.90;;;;;;3995402;29;20184;-90
2023/01/11 06:13:25;;;;;;;15.15;2.50;;;12.20;99.90;;;;;;4009498;29;20183;-88
2023/01/11 06:15:26;;;;;;;27.17;3.53;;;12.20;99.90;;;;;;4024625;29;20174;-88
2023/01/11 06:17:27;;;;;;;19.50;2.42;;;12.10;99.90;;;;;;4009534;29;20259;-88
2023/01/11 06:19:27;;;;;;;20.33;2.63;;;12.10;99.90;;;;;;3994100;29;20172;-88
2023/01/11 06:21:28;;;;;;;21.05;2.80;;;12.20;99.90;;;;;;4009696;29;20273;-88
2023/01/11 06:23:30;;;;;;;22.83;3.30;;;12.10;99.90;;;;;;3994250;29;20224;-88
2023/01/11 06:25:33;;;;;;;16.67;2.72;;;12.10;99.90;;;;;;3994126;29;20241;-89
2023/01/11 06:27:34;;;;;;;22.27;2.70;;;12.10;99.90;;;;;;3994134;29;20203;-88
2023/01/11 06:29:34;;;;;;;19.52;2.60;;;12.00;99.90;;;;;;4009441;29;20179;-88
2023/01/11 06:31:35;;;;;;;18.02;2.28;;;12.10;99.90;;;;;;4009290;29;20179;-89
2023/01/11 06:33:36;;;;;;;19.20;2.95;;;12.00;99.90;;;;;;4009416;29;20183;-88
2023/01/11 06:35:39;;;;;;;25.40;3.05;;;11.80;99.90;;;;;;4024415;29;20194;-88
2023/01/11 06:37:39;;;;;;;22.92;2.83;;;11.90;99.90;;;;;;4009098;29;20205;-89
2023/01/11 06:39:40;;;;;;;12.20;2.13;;;12.00;99.90;;;;;;4009166;29;20179;-87
2023/01/11 06:41:41;;;;;;;14.60;2.03;;;11.90;99.90;;;;;;4009269;29;20183;-89
2023/01/11 06:43:41;;;;;;;21.98;2.65;;;11.80;99.90;;;;;;4009052;29;20219;-88
2023/01/11 06:45:42;;;;;;;13.43;2.10;;;11.80;99.90;;;;;;4008908;29;20209;-88
2023/01/11 06:47:43;;;;;;;16.92;2.35;;;11.70;99.90;;;;;;3993683;29;20250;-88
2023/01/11 06:49:43;;;;;;;23.80;2.67;;;11.60;99.90;;;;;;4008930;29;20214;-89
2023/01/11 06:51:44;;;;;;;14.15;2.38;;;11.50;99.90;;;;;;4008518;29;20171;-92
2023/01/11 06:53:45;;;;;;;21.95;2.50;;;11.50;99.90;;;;;;4024564;29;20193;-90
2023/01/11 06:55:50;;;;;;;17.42;2.33;;;11.40;99.90;;;;;;4009010;29;20175;-90
2023/01/11 06:57:51;;;;;;;28.60;2.90;;;11.30;99.90;;;;;;3993458;29;20203;-89
2023/01/11 06:59:52;;;;;;;16.95;2.50;;;11.40;99.90;;;;;;4008876;29;20213;-90
2023/01/11 07:01:52;;;;;;;20.58;2.60;;;11.40;99.90;;;;;;4009155;29;20182;-88
2023/01/11 07:03:53;;;;;;;20.40;2.75;;;11.10;99.90;;;;;;4008759;29;20218;-91
2023/01/11 07:05:58;;;;;;;16.40;2.95;;;11.00;99.90;;;;;;4008857;29;20180;-91
2023/01/11 07:07:59;;;;;;;22.08;2.53;;;11.10;99.90;;;;;;4024218;29;20212;-91
2023/01/11 07:09:59;;;;;;;19.92;2.10;;;11.10;99.90;;;;;;3993289;29;20183;-90
2023/01/11 07:12:00;;;;;;;22.02;2.92;;;11.20;99.90;;;;;;3993566;29;20175;-90
2023/01/11 07:14:01;;;;;;;22.27;3.55;;;11.20;99.90;;;;;;4008601;29;20281;-91
2023/01/11 07:16:01;;;;;;;19.48;2.58;;;11.10;99.90;;;;;;3993464;29;20236;-88
2023/01/11 07:18:02;;;;;;;17.67;2.90;;;11.30;99.90;;;;;;4008558;29;20183;-87
2023/01/11 07:20:04;;;;;;;26.30;2.78;;;11.40;99.90;;;;;;3993469;29;20638;-88
2023/01/11 07:22:05;;;;;;;27.27;2.80;;;11.30;99.90;;;;;;3993318;29;20176;-87
2023/01/11 07:24:06;;;;;;;23.23;3.35;;;11.30;99.90;;;;;;4008624;29;20814;-87
2023/01/11 07:26:06;;;;;;;29.02;2.88;;;11.30;99.90;;;;;;4008566;29;20186;-88
2023/01/11 07:28:08;;;;;;;17.95;2.50;;;11.10;99.90;;;;;;4008577;29;20183;-88
2023/01/11 07:30:09;;;;;;;19.02;2.80;;;11.10;99.90;;;;;;4008395;29;20214;-87
2023/01/11 07:32:10;;;;;;;19.63;2.70;;;11.10;99.90;;;;;;4008092;29;20167;-88
2023/01/11 07:34:11;;;;;;;16.48;2.15;;;11.00;99.90;;;;;;4008292;29;20274;-90
2023/01/11 07:36:12;;;;;;;24.77;2.35;;;10.90;99.90;;;;;;4008140;29;20401;-87
2023/01/11 07:38:12;;;;;;;18.92;3.25;;;10.90;99.90;;;;;;3993057;29;20184;-88
2023/01/11 07:40:15;;;;;;;24.20;2.58;;;10.80;99.90;;;;;;4008262;29;20748;-88
2023/01/11 07:44:34;;;;;;;23.92;2.50;;;10.70;99.90;;;;;;4008220;29;20592;-87
2023/01/11 07:46:35;;;;;;;22.00;2.75;;;10.70;99.90;;;;;;3993027;29;20195;-88
2023/01/11 07:48:36;;;;;;;19.48;2.65;;;10.70;99.90;;;;;;3992984;29;20550;-87
2023/01/11 07:50:38;;;;;;;36.20;4.85;;;10.60;99.90;;;;;;4023416;29;20171;-91
2023/01/11 07:52:47;;;;;;;28.55;4.03;;;10.50;99.90;;;;;;3992827;29;20188;-88
2023/01/11 07:54:48;;;;;;;22.83;3.85;;;10.40;99.90;;;;;;3993457;29;20187;-89
2023/01/11 07:56:49;;;;;;;30.48;3.45;;;10.30;99.90;;;;;;4008063;29;20738;-90
2023/01/11 07:58:49;;;;;;;25.48;2.55;;;10.40;99.90;;;;;;4007836;29;20637;-90
2023/01/11 08:00:50;;;;;;;26.77;3.95;;;10.40;99.90;;;;;;4023197;29;20174;-88
2023/01/11 08:02:51;;;;;;;21.05;3.10;;;10.30;99.90;;;;;;4006943;29;20194;-88
2023/01/11 08:04:52;;;;;;;20.08;2.58;;;10.20;99.90;;;;;;3992754;29;20183;-90
2023/01/11 08:06:53;;;;;;;24.17;3.25;;;10.20;99.90;;;;;;3992917;29;20286;-93
2023/01/11 08:08:54;;;;;;;24.48;3.90;;;10.20;99.90;;;;;;4023019;29;20273;-90
2023/01/11 08:15:35;;;;;;;25.25;2.65;;;10.30;99.90;;;;;;4023025;29;20257;-90
2023/01/11 08:17:36;;;;;;;18.55;2.47;;;10.20;99.90;;;;;;4007519;29;20249;-90
2023/01/11 08:19:37;;;;;;;22.02;2.65;;;10.20;99.90;;;;;;4007620;29;20179;-87
2023/01/11 08:21:38;;;;;;;24.75;2.67;;;10.20;99.90;;;;;;3992903;29;20228;-90
2023/01/11 08:23:38;;;;;;;24.65;2.60;;;10.20;99.90;;;;;;4007811;29;20314;-88
2023/01/11 08:25:39;;;;;;;26.10;3.05;;;10.20;99.90;;;;;;3992839;29;20195;-88
2023/01/11 08:27:40;;;;;;;22.30;2.70;;;10.20;99.90;;;;;;4007774;29;20338;-88
2023/01/11 08:29:43;;;;;;;18.67;3.08;;;10.30;99.90;;;;;;4007908;29;20179;-88
2023/01/11 08:31:44;;;;;;;20.60;2.47;;;10.30;99.90;;;;;;3992644;29;20299;-89
2023/01/11 08:33:45;;;;;;;20.00;2.25;;;10.30;99.90;;;;;;3992604;29;20689;-88
2023/01/11 08:35:46;;;;;;;24.85;3.40;;;10.30;99.90;;;;;;3992465;29;20627;-89
2023/01/11 08:37:47;;;;;;;19.77;2.72;;;10.30;99.90;;;;;;4007523;29;20210;-89
2023/01/11 08:39:47;;;;;;;22.55;2.35;;;10.40;99.90;;;;;;4007374;29;20633;-87
2023/01/11 08:41:48;;;;;;;26.33;3.03;;;10.40;99.90;;;;;;4007496;29;20183;-90
2023/01/11 08:43:49;;;;;;;17.25;2.60;;;10.20;99.90;;;;;;4007513;29;20271;-90
2023/01/11 08:45:50;;;;;;;22.38;3.15;;;10.20;99.90;;;;;;3992249;29;20215;-90
2023/01/11 08:47:51;;;;;;;25.73;3.08;;;10.10;99.90;;;;;;4007161;29;20207;-87
2023/01/11 08:49:51;;;;;;;21.98;2.72;;;10.00;99.90;;;;;;3992283;29;20729;-87
2023/01/11 08:51:52;;;;;;;24.80;3.40;;;10.20;99.90;;;;;;3992299;29;20226;-89
2023/01/11 08:53:53;;;;;;;22.42;3.55;;;10.20;99.90;;;;;;4022606;29;20642;-88
2023/01/11 08:55:53;;;;;;;32.20;2.95;;;10.30;99.90;;;;;;3992287;29;20279;-91
2023/01/11 08:57:56;;;;;;;26.00;3.08;;;10.30;99.90;;;;;;3992273;29;20741;-90
2023/01/11 08:59:56;;;;;;;23.17;2.83;;;10.40;99.90;;;;;;3992369;29;20186;-88
2023/01/11 09:01:57;;;;;;;25.98;2.97;;;10.20;99.90;;;;;;4007259;29;20183;-91
2023/01/11 09:03:58;;;;;;;24.13;2.85;;;10.20;99.90;;;;;;4007285;29;20273;-91
2023/01/11 09:05:59;;;;;;;32.30;2.95;;;10.20;99.90;;;;;;4006949;29;20194;-88
2023/01/11 09:08:00;;;;;;;25.55;2.65;;;10.10;99.90;;;;;;4022258;29;20195;-88
2023/01/11 09:10:01;;;;;;;28.73;3.58;;;10.10;99.90;;;;;;3992104;29;20176;-88
2023/01/11 09:12:03;;;;;;;20.30;3.00;;;10.10;99.90;;;;;;4022117;29;20200;-89
2023/01/11 09:14:04;;;;;;;26.40;2.78;;;10.30;99.90;;;;;;3991784;29;20179;-88
2023/01/11 09:16:05;;;;;;;23.25;2.80;;;10.30;99.90;;;;;;4007120;29;20245;-88
2023/01/11 09:18:05;;;;;;;25.88;3.17;;;10.40;99.90;;;;;;4007088;29;20202;-89
2023/01/11 09:20:06;;;;;;;20.67;3.25;;;10.60;99.90;;;;;;4006974;29;20208;-87
2023/01/11 09:22:07;;;;;;;23.13;3.17;;;10.90;99.90;;;;;;4007416;29;20223;-87
2023/01/11 09:24:08;;;;;;;24.40;2.85;;;11.20;99.90;;;;;;3992122;29;20609;-88
2023/01/11 09:26:11;;;;;;;21.95;3.17;;;11.40;99.90;;;;;;3992134;29;20259;-88
2023/01/11 09:28:12;;;;;;;28.77;3.22;;;11.70;99.90;;;;;;3992146;29;20190;-88
2023/01/11 09:30:14;;;;;;;26.65;3.38;;;12.30;99.90;;;;;;4006800;29;20175;-89
2023/01/11 09:32:15;;;;;;;24.10;3.22;;;12.50;99.90;;;;;;4006598;29;20718;-88
2023/01/11 09:34:16;;;;;;;23.70;3.60;;;12.40;99.90;;;;;;3991576;29;20270;-88
2023/01/11 09:36:20;;;;;;;18.67;2.58;;;12.50;99.90;;;;;;4006840;29;20715;-87
2023/01/11 09:38:24;;;;;;;17.30;3.00;;;12.50;99.90;;;;;;3991787;29;20654;-89
2023/01/11 09:40:50;;;;;;;21.98;2.83;;;12.60;99.90;;;;;;4006758;29;20195;-88
2023/01/11 09:42:59;;;;;;;24.10;3.33;;;12.50;99.90;;;;;;4006637;29;20191;-88
2023/01/11 09:45:06;;;;;;;22.98;3.25;;;12.10;99.90;;;;;;3991654;29;20176;-88
2023/01/11 09:47:26;;;;;;;25.55;2.85;;;11.70;99.90;;;;;;3991794;29;20203;-87
2023/01/11 09:49:33;;;;;;;21.38;3.65;;;11.40;99.90;;;;;;3991762;29;20175;-88
2023/01/11 09:51:38;;;;;;;18.48;2.60;;;11.40;99.90;;;;;;3991777;29;20221;-88
2023/01/11 09:53:41;;;;;;;26.63;2.85;;;11.30;99.90;;;;;;3991725;29;20176;-87
2023/01/11 09:55:49;;;;;;;28.63;3.65;;;11.10;99.90;;;;;;4006738;29;20206;-90
2023/01/11 09:58:33;;;;;;;29.75;3.47;;;11.20;99.90;;;;;;3991587;29;20202;-90
2023/01/11 10:01:13;;;;;;;24.98;2.97;;;11.10;99.90;;;;;;3991709;29;20657;-91
2023/01/11 10:03:44;;;;;;;24.20;3.80;;;11.20;99.90;;;;;;3991373;29;20203;-91
2023/01/11 10:06:16;;;;;;;25.17;3.38;;;11.20;99.90;;;;;;3988720;29;20240;-88
2023/01/11 10:08:46;;;;;;;21.65;3.33;;;11.30;99.90;;;;;;3991325;29;20217;-89
2023/01/11 10:10:57;;;;;;;29.08;3.50;;;11.40;99.90;;;;;;3991436;29;20678;-88
2023/01/11 10:13:27;;;;;;;27.45;3.13;;;11.40;99.90;;;;;;3991465;29;20199;-88
2023/01/11 10:15:36;;;;;;;21.50;2.63;;;11.30;99.90;;;;;;4006591;29;20223;-90
2023/01/11 10:18:22;;;;;;;28.25;3.67;;;11.50;99.90;;;;;;4006521;29;20206;-90
2023/01/11 10:20:33;;;;;;;25.58;3.60;;;11.70;99.90;;;;;;3991489;29;20263;-90
2023/01/11 10:22:43;;;;;;;22.05;3.28;;;11.70;99.90;;;;;;3991439;29;20183;-90
2023/01/11 10:24:55;;;;;;;32.17;3.78;;;11.80;99.90;;;;;;3991538;29;20284;-90
2023/01/11 10:27:00;;;;;;;23.60;3.53;;;11.80;99.90;;;;;;3993432;29;20259;-90
2023/01/11 10:34:37;;;;;;;31.13;3.67;;;12.00;99.90;;;;;;4009221;29;20216;-90
2023/01/11 10:42:04;;;;;;;32.28;3.58;;;11.80;99.90;;;;;;4024376;29;20186;-88
2023/01/11 10:44:07;;;;;;;17.85;2.72;;;12.00;99.90;;;;;;3993840;29;20756;-88
2023/01/11 10:46:22;;;;;;;25.05;3.28;;;12.20;99.90;;;;;;4009187;29;20668;-87
2023/01/11 10:48:33;;;;;;;31.77;3.75;;;12.20;99.90;;;;;;3994069;29;20194;-89
2023/01/11 10:50:55;;;;;;;31.25;4.15;;;12.30;99.90;;;;;;3993858;29;20198;-88
2023/01/11 10:53:11;;;;;;;33.53;3.92;;;12.40;99.90;;;;;;3993411;29;20293;-88
2023/01/11 10:55:24;;;;;;;26.40;3.75;;;12.30;99.90;;;;;;3993548;29;20673;-92
2023/01/11 10:58:05;;;;;;;36.45;4.22;;;12.00;99.90;;;;;;3993661;29;20309;-91
2023/01/11 11:00:35;;;;;;;26.40;2.90;;;11.90;99.90;;;;;;3993715;29;20255;-91
2023/01/11 11:02:44;;;;;;;24.63;3.67;;;11.90;99.90;;;;;;3993684;29;20289;-93
2023/01/11 11:05:07;;;;;;;35.60;3.63;;;12.10;99.90;;;;;;4008743;29;20202;-90
2023/01/11 11:07:24;;;;;;;32.28;5.47;;;12.10;99.90;;;;;;4008679;29;20207;-91
2023/01/11 11:10:00;;;;;;;21.92;3.63;;;12.10;99.90;;;;;;3993483;29;20176;-89
2023/01/11 11:12:11;;;;;;;27.85;3.50;;;12.20;99.90;;;;;;3977906;29;20299;-90
2023/01/11 11:14:24;;;;;;;26.13;2.95;;;12.40;99.90;;;;;;3993324;29;20187;-90
2023/01/11 11:16:39;;;;;;;29.75;3.60;;;12.20;99.90;;;;;;3993602;29;20218;-90
2023/01/11 11:18:41;;;;;;;24.48;3.53;;;12.20;99.90;;;;;;3993476;29;20186;-91
2023/01/11 11:20:43;;;;;;;26.13;3.33;;;12.30;99.90;;;;;;3993454;29;20298;-90
2023/01/11 11:22:47;;;;;;;28.98;3.40;;;12.10;99.90;;;;;;4008544;29;20209;-89
2023/01/11 11:25:13;;;;;;;29.20;3.92;;;12.10;99.90;;;;;;4008385;29;20271;-90
2023/01/11 11:27:20;;;;;;;26.92;3.95;;;12.20;99.90;;;;;;3989782;29;20656;-90
2023/01/11 11:29:22;;;;;;;29.35;3.58;;;12.30;99.90;;;;;;3993552;29;20183;-89
2023/01/11 11:31:22;;;;;;;28.70;4.63;;;12.40;99.90;;;;;;3993321;29;20220;-91
2023/01/11 11:33:34;;;;;;;24.02;3.30;;;12.60;99.90;;;;;;4008494;29;20179;-90
2023/01/11 11:35:38;;;;;;;23.77;3.95;;;12.70;99.90;;;;;;4023427;29;20193;-91
2023/01/11 11:37:44;;;;;;;27.42;3.72;;;12.40;99.90;;;;;;4007970;29;20191;-90
2023/01/11 11:39:49;;;;;;;25.08;3.55;;;12.20;99.90;;;;;;4008336;29;20255;-89
2023/01/11 11:41:52;;;;;;;24.05;3.38;;;12.40;99.90;;;;;;4008185;29;20210;-91
2023/01/11 11:44:13;;;;;;;37.53;3.58;;;12.30;99.90;;;;;;4008185;29;20622;-90
2023/01/11 11:46:14;;;;;;;27.45;3.83;;;12.10;99.90;;;;;;4008141;29;20206;-90
2023/01/11 11:48:15;;;;;;;23.38;3.28;;;12.00;99.90;;;;;;4008460;29;20542;-89
2023/01/11 11:50:18;;;;;;;30.10;4.40;;;12.10;99.90;;;;;;4008131;29;20175;-90
2023/01/11 11:52:19;;;;;;;22.90;2.97;;;11.90;99.90;;;;;;4008153;29;20190;-90
2023/01/11 11:54:26;;;;;;;23.70;4.65;;;12.10;99.90;;;;;;4008230;29;20537;-89
2023/01/11 11:56:36;;;;;;;28.00;3.60;;;12.20;99.90;;;;;;4007966;29;20284;-90
2023/01/11 11:58:40;;;;;;;26.23;4.10;;;12.20;99.90;;;;;;4023310;29;20178;-90
2023/01/11 12:00:47;;;;;;;23.90;3.53;;;12.20;99.90;;;;;;3993016;29;20187;-90
2023/01/11 12:02:52;;;;;;;29.98;3.92;;;12.20;99.90;;;;;;3992777;29;20179;-89
2023/01/11 12:04:54;;;;;;;26.80;3.83;;;12.20;99.90;;;;;;3992768;29;20187;-89
2023/01/11 12:07:14;;;;;;;27.40;3.22;;;12.10;99.90;;;;;;3992552;29;20199;-89
2023/01/11 12:09:30;;;;;;;29.92;3.70;;;12.00;99.90;;;;;;3992452;29;20188;-90
2023/01/11 12:11:34;;;;;;;25.27;3.72;;;12.10;99.90;;;;;;3992719;29;20167;-89
2023/01/11 12:13:37;;;;;;;36.35;3.85;;;12.10;99.90;;;;;;3992774;29;20183;-89
2023/01/11 12:15:38;;;;;;;21.58;3.75;;;12.30;99.90;;;;;;3992824;29;20221;-90
2023/01/11 12:17:38;;;;;;;31.80;4.13;;;12.40;99.90;;;;;;4007591;29;20202;-89
2023/01/11 12:19:43;;;;;;;32.05;4.10;;;12.30;99.90;;;;;;4007651;29;20552;-89
2023/01/11 12:21:44;;;;;;;30.88;3.58;;;12.50;99.90;;;;;;4022726;29;20186;-90
2023/01/11 12:23:45;;;;;;;25.60;3.20;;;12.50;99.90;;;;;;4007507;29;20218;-90
2023/01/11 12:25:52;;;;;;;24.10;3.85;;;12.50;99.90;;;;;;3992835;29;20609;-90
2023/01/11 12:28:26;;;;;;;20.15;3.60;;;12.60;99.90;;;;;;3992713;29;20689;-90
2023/01/11 12:31:00;;;;;;;35.92;3.53;;;12.60;99.90;;;;;;3986081;29;20370;-90
2023/01/11 12:33:43;;;;;;;26.17;3.80;;;12.70;99.90;;;;;;3992436;29;20215;-90
2023/01/11 12:36:03;;;;;;;27.60;3.13;;;12.60;99.90;;;;;;4007246;29;20205;-90
2023/01/11 12:38:13;;;;;;;24.55;2.50;;;12.30;99.90;;;;;;3992563;29;20270;-89
2023/01/11 12:40:27;;;;;;;34.10;3.08;;;12.40;99.90;;;;;;4007389;29;20274;-90
2023/01/11 12:42:50;;;;;;;31.52;3.38;;;12.40;99.90;;;;;;3992579;29;20290;-90
2023/01/11 12:45:21;;;;;;;18.20;2.67;;;12.80;99.90;;;;;;4007386;29;20610;-89
2023/01/11 12:47:34;;;;;;;23.38;3.58;;;13.00;99.90;;;;;;4007267;29;20206;-90
2023/01/11 12:50:07;;;;;;;23.17;2.60;;;12.80;99.90;;;;;;4006799;29;20175;-89
2023/01/11 12:52:36;;;;;;;15.13;2.55;;;12.70;99.90;;;;;;4007465;29;20243;-90
2023/01/11 12:54:54;;;;;;;22.35;3.35;;;12.50;99.90;;;;;;4007241;29;20190;-90
2023/01/11 12:57:10;;;;;;;18.40;3.10;;;12.50;99.90;;;;;;3991959;29;20196;-90